Time;durP1;ratioP1;P1;durP2;ratioP2;P2;SDS_P1;SDS_P2;PMS_P1;PMS_P2;Temp;Humidity;BMP_temperature;BMP_pressure;BME280_temperature;BME280_humidity;BME280_pressure;Samples;Min_cycle;Max_cycle;Signal;HPM_P1;HPM_P2
2022/03/12 00:00:18;;;;;;;11.80;6.35;;;;;;;4.61;51.52;101553.34;6284059;22;20022;-80
2022/03/12 00:02:50;;;;;;;11.35;6.13;;;;;;;4.59;51.79;101556.72;6228831;22;20025;-80
2022/03/12 00:05:25;;;;;;;11.15;6.47;;;;;;;4.58;51.70;101553.22;6321655;22;20025;-80
2022/03/12 00:08:00;;;;;;;9.70;6.68;;;;;;;4.56;51.57;101556.63;6238548;22;20019;-80
2022/03/12 00:10:32;;;;;;;8.82;6.68;;;;;;;4.54;51.65;101543.50;6320287;22;20025;-80
2022/03/12 00:13:08;;;;;;;10.93;6.88;;;;;;;4.51;51.80;101551.19;6294758;22;20021;-80
2022/03/12 00:15:37;;;;;;;9.93;6.68;;;;;;;4.48;51.96;101551.97;6264018;22;20027;-81
2022/03/12 00:18:06;;;;;;;8.55;6.10;;;;;;;4.45;51.56;101559.66;6290041;22;20448;-80
2022/03/12 00:20:35;;;;;;;8.57;6.40;;;;;;;4.44;52.18;101560.53;6312691;22;20242;-80
2022/03/12 00:23:10;;;;;;;10.00;5.80;;;;;;;4.41;51.85;101555.16;6324168;22;20470;-79
2022/03/12 00:25:41;;;;;;;8.80;6.38;;;;;;;4.39;51.85;101554.22;6251927;22;20511;-81
2022/03/12 00:28:09;;;;;;;11.30;6.57;;;;;;;4.39;52.30;101558.56;6284193;22;20475;-82
2022/03/12 00:30:38;;;;;;;8.30;6.53;;;;;;;4.36;52.23;101554.09;6265035;22;20019;-84
2022/03/12 00:33:09;;;;;;;13.15;6.18;;;;;;;4.36;52.44;101561.91;6299347;22;20022;-81
2022/03/12 00:35:38;;;;;;;7.97;6.50;;;;;;;4.37;52.35;101565.44;6257698;22;20023;-81
2022/03/12 00:38:07;;;;;;;11.73;6.88;;;;;;;4.37;52.92;101560.22;6285964;22;20045;-81
2022/03/12 00:40:37;;;;;;;10.18;6.28;;;;;;;4.34;52.13;101560.09;6282018;22;20231;-80
2022/03/12 00:43:07;;;;;;;12.82;6.82;;;;;;;4.34;52.64;101570.53;6262838;22;20352;-82
2022/03/12 00:45:37;;;;;;;10.00;6.38;;;;;;;4.32;52.52;101560.00;6248636;22;20364;-80
2022/03/12 00:48:06;;;;;;;7.97;6.15;;;;;;;4.30;52.74;101561.69;6336661;22;20018;-80
2022/03/12 00:50:55;;;;;;;13.23;6.75;;;;;;;4.32;52.43;101570.44;6293675;22;20343;-80
2022/03/12 00:53:23;;;;;;;10.23;6.45;;;;;;;4.30;52.30;101570.38;6273216;22;20034;-80
2022/03/12 00:55:52;;;;;;;11.00;6.57;;;;;;;4.29;53.15;101558.19;6308551;22;20015;-80
2022/03/12 00:58:21;;;;;;;7.15;5.93;;;;;;;4.29;52.96;101567.72;6308432;22;20343;-82
2022/03/12 01:00:50;;;;;;;14.82;6.80;;;;;;;4.26;52.59;101563.28;6248165;22;20010;-81
2022/03/12 01:03:18;;;;;;;8.93;6.63;;;;;;;4.24;52.96;101556.22;6297426;22;20022;-80
2022/03/12 01:05:49;;;;;;;10.07;6.40;;;;;;;4.23;53.25;101557.91;6286249;22;20015;-80
2022/03/12 01:08:19;;;;;;;7.65;6.03;;;;;;;4.21;52.98;101554.34;6336240;22;20025;-82
2022/03/12 01:10:48;;;;;;;10.77;6.13;;;;;;;4.20;53.46;101549.97;6308143;22;20454;-79
2022/03/12 01:13:16;;;;;;;9.10;6.45;;;;;;;4.18;53.56;101548.13;6309809;22;20019;-80
2022/03/12 01:15:45;;;;;;;14.50;6.45;;;;;;;4.17;53.43;101556.78;6273297;22;20022;-80
2022/03/12 01:18:21;;;;;;;11.93;6.63;;;;;;;4.15;53.59;101548.91;6284167;22;20026;-79
2022/03/12 01:20:50;;;;;;;10.10;6.15;;;;;;;4.14;52.70;101556.66;6286865;22;20352;-81
2022/03/12 01:23:24;;;;;;;9.23;6.30;;;;;;;4.12;53.35;101548.78;6309063;22;20048;-80
2022/03/12 01:25:53;;;;;;;9.45;6.70;;;;;;;4.09;53.24;101543.44;6340788;22;20420;-79
2022/03/12 01:28:28;;;;;;;9.35;6.38;;;;;;;4.08;53.26;101545.16;6298016;22;20239;-80
2022/03/12 01:30:58;;;;;;;9.32;6.40;;;;;;;4.08;53.42;101558.22;6290247;22;20011;-80
2022/03/12 01:33:26;;;;;;;8.88;6.55;;;;;;;4.10;53.68;101558.25;6307952;22;20021;-80
2022/03/12 01:35:57;;;;;;;12.55;6.28;;;;;;;4.07;53.80;101556.41;6307127;22;20029;-80
2022/03/12 01:38:54;;;;;;;7.75;5.90;;;;;;;4.07;53.34;101565.97;6281900;22;20026;-81
2022/03/12 01:41:31;;;;;;;10.25;6.72;;;;;;;4.05;53.92;101559.81;6281758;22;20015;-82
2022/03/12 01:44:02;;;;;;;7.05;6.22;;;;;;;4.05;53.52;101572.84;6339302;22;20050;-79
2022/03/12 01:46:34;;;;;;;13.48;6.15;;;;;;;4.03;53.66;101559.72;6291820;22;20543;-79
2022/03/12 01:49:16;;;;;;;13.13;7.22;;;;;;;4.03;53.93;101564.06;6338954;22;20019;-80
2022/03/12 01:51:47;;;;;;;10.93;6.68;;;;;;;4.02;53.71;101567.47;6305721;22;20460;-81
2022/03/12 01:54:21;;;;;;;10.45;6.57;;;;;;;4.00;53.23;101570.03;6293713;22;20011;-82
2022/03/12 01:56:53;;;;;;;10.95;6.70;;;;;;;4.00;54.14;101570.03;6340577;22;20033;-79
2022/03/12 01:59:22;;;;;;;9.48;5.55;;;;;;;3.99;53.00;101572.56;6305392;22;20333;-80
2022/03/12 02:01:52;;;;;;;12.27;6.28;;;;;;;4.00;53.80;101574.34;6260639;22;20014;-77
2022/03/12 02:04:23;;;;;;;8.02;5.65;;;;;;;3.99;53.87;101569.94;6266449;22;20030;-76
2022/03/12 02:06:53;;;;;;;10.18;6.57;;;;;;;3.95;53.90;101568.97;6305992;22;20023;-78
2022/03/12 02:09:22;;;;;;;10.32;6.50;;;;;;;3.95;53.54;101573.25;6269792;22;20030;-77
2022/03/12 02:11:54;;;;;;;7.70;5.72;;;;;;;3.94;53.70;101563.69;6311202;22;20018;-76
2022/03/12 02:14:27;;;;;;;12.95;6.43;;;;;;;3.93;53.72;101565.38;6216699;22;20337;-76
2022/03/12 02:17:01;;;;;;;12.70;6.43;;;;;;;3.90;53.84;101563.53;6275986;22;20018;-76
2022/03/12 02:19:33;;;;;;;8.23;6.78;;;;;;;3.89;54.07;101560.88;6239164;22;20074;-78
2022/03/12 02:22:15;;;;;;;9.95;6.60;;;;;;;3.89;54.31;101573.91;6276753;22;20471;-77
2022/03/12 02:24:44;;;;;;;10.82;6.60;;;;;;;3.87;53.88;101570.34;6311678;22;20220;-78
2022/03/12 02:27:12;;;;;;;8.05;6.18;;;;;;;3.85;54.20;101556.34;6311517;22;20019;-77
2022/03/12 02:29:43;;;;;;;9.77;6.22;;;;;;;3.85;54.18;101562.44;6302071;22;20077;-76
2022/03/12 02:32:13;;;;;;;9.93;6.18;;;;;;;3.85;54.18;101565.06;6309808;22;20018;-76
2022/03/12 02:34:49;;;;;;;13.50;6.28;;;;;;;3.86;54.49;101560.75;6280746;22;20022;-77
2022/03/12 02:37:30;;;;;;;8.15;6.43;;;;;;;3.86;54.06;101555.53;6252501;22;20014;-77
2022/03/12 02:40:06;;;;;;;11.88;6.30;;;;;;;3.87;54.14;101559.91;6286050;22;20015;-75
2022/03/12 02:42:37;;;;;;;10.13;5.70;;;;;;;3.86;53.74;101558.16;6336065;22;20183;-77
2022/03/12 02:45:08;;;;;;;10.45;6.72;;;;;;;3.86;53.62;101563.38;6274032;22;20022;-76
2022/03/12 02:47:40;;;;;;;7.30;6.13;;;;;;;3.86;54.32;101561.63;6302716;22;20019;-77
2022/03/12 02:50:12;;;;;;;7.80;5.78;;;;;;;3.84;53.84;101552.88;6258827;22;20448;-77
2022/03/12 02:52:44;;;;;;;12.20;5.78;;;;;;;3.84;53.92;101558.06;6266418;22;20612;-78
2022/03/12 02:55:18;;;;;;;8.68;6.60;;;;;;;3.83;53.98;101560.63;6270668;22;20023;-76
2022/03/12 02:57:50;;;;;;;8.80;6.25;;;;;;;3.85;54.12;101556.34;6298328;22;20019;-77
2022/03/12 03:00:20;;;;;;;;;;;;;;;3.83;53.67;101560.63;6245397;22;20344;-76
2022/03/12 03:02:53;;;;;;;6.32;5.55;;;;;;;3.84;53.54;101558.06;6268304;22;19914;-77
2022/03/12 03:05:36;;;;;;;6.97;5.43;;;;;;;3.85;53.27;101558.97;6294271;22;20015;-77
2022/03/12 03:08:09;;;;;;;11.23;7.00;;;;;;;3.86;53.73;101559.03;6282707;22;20050;-78
2022/03/12 03:10:42;;;;;;;9.00;6.00;;;;;;;3.86;53.24;101566.84;6297951;22;20203;-77
2022/03/12 03:13:16;;;;;;;6.55;5.85;;;;;;;3.86;53.73;101556.41;6336755;22;20019;-77
2022/03/12 03:15:53;;;;;;;6.93;5.70;;;;;;;3.86;53.68;101563.38;6247630;22;20023;-78
2022/03/12 03:18:24;;;;;;;6.95;5.57;;;;;;;3.86;53.68;101568.56;6303279;22;20455;-77
2022/03/12 03:20:54;;;;;;;11.52;6.10;;;;;;;3.85;53.31;101565.06;6245436;22;20019;-77
2022/03/12 03:23:26;;;;;;;10.23;5.78;;;;;;;3.85;53.22;101570.28;6329069;22;20011;-76
2022/03/12 03:25:57;;;;;;;13.25;5.40;;;;;;;3.84;53.08;101568.50;6301599;22;20019;-77
2022/03/12 03:28:25;;;;;;;7.90;6.82;;;;;;;3.85;53.67;101578.09;6268326;22;20407;-78
2022/03/12 03:30:54;;;;;;;8.85;6.72;;;;;;;3.85;53.58;101569.38;6301733;22;20018;-77
2022/03/12 03:33:23;;;;;;;9.25;6.00;;;;;;;3.85;53.80;101572.00;6252778;22;20015;-77
2022/03/12 03:35:56;;;;;;;10.63;6.10;;;;;;;3.86;52.86;101576.41;6286942;22;20388;-76
2022/03/12 03:38:27;;;;;;;6.35;5.65;;;;;;;3.86;53.12;101565.97;6239592;22;20023;-76
2022/03/12 03:40:56;;;;;;;10.13;5.68;;;;;;;3.86;53.13;101576.41;6284204;22;20019;-77
2022/03/12 03:43:27;;;;;;;12.07;5.88;;;;;;;3.85;52.51;101574.59;6278893;22;20011;-77
2022/03/12 03:45:57;;;;;;;9.30;4.90;;;;;;;3.84;52.69;101578.94;6284424;22;20022;-77
2022/03/12 03:48:37;;;;;;;8.88;5.75;;;;;;;3.85;52.67;101583.31;6252413;22;20143;-77
2022/03/12 03:51:10;;;;;;;6.88;5.55;;;;;;;3.85;52.93;101575.47;6300319;22;20022;-77
2022/03/12 03:53:39;;;;;;;10.48;5.95;;;;;;;3.85;51.98;101569.38;6268111;22;20029;-77
2022/03/12 03:56:10;;;;;;;8.85;5.97;;;;;;;3.84;51.99;101576.34;6284206;22;20033;-77
2022/03/12 03:58:38;;;;;;;6.03;5.30;;;;;;;3.83;52.41;101586.69;6332510;22;20019;-77
2022/03/12 04:01:14;;;;;;;11.98;5.50;;;;;;;3.81;52.23;101586.63;6297873;22;20329;-77
2022/03/12 04:03:51;;;;;;;6.93;5.20;;;;;;;3.80;52.70;101592.69;6271947;22;20018;-77
2022/03/12 04:06:21;;;;;;;8.60;5.80;;;;;;;3.80;52.74;101597.88;6326680;22;20027;-76
2022/03/12 04:08:51;;;;;;;6.28;4.82;;;;;;;3.80;52.25;101599.59;6242453;22;20014;-77
2022/03/12 04:11:22;;;;;;;10.50;5.60;;;;;;;3.79;52.94;101605.63;6277308;22;20054;-76
2022/03/12 04:13:53;;;;;;;7.90;5.68;;;;;;;3.78;52.73;101601.22;6247414;22;20469;-76
2022/03/12 04:16:25;;;;;;;7.80;5.50;;;;;;;3.75;52.69;101596.78;6332427;22;20029;-77
2022/03/12 04:18:55;;;;;;;9.15;5.18;;;;;;;3.75;52.90;101604.63;6273132;22;20347;-76
2022/03/12 04:21:23;;;;;;;6.18;5.30;;;;;;;3.71;53.12;101607.91;6300876;22;20017;-77
2022/03/12 04:23:52;;;;;;;6.88;5.25;;;;;;;3.71;52.89;101615.75;6259966;22;20018;-77
2022/03/12 04:26:20;;;;;;;8.45;5.15;;;;;;;3.67;52.92;101616.44;6270271;22;20019;-76
2022/03/12 04:28:49;;;;;;;6.57;5.05;;;;;;;3.67;53.22;101613.81;6246676;22;20026;-77
2022/03/12 04:31:18;;;;;;;7.22;4.70;;;;;;;3.65;52.64;101623.31;6271026;22;20027;-77
2022/03/12 04:33:47;;;;;;;7.10;5.47;;;;;;;3.61;53.51;101617.06;6282777;22;20018;-76
2022/03/12 04:36:16;;;;;;;5.97;4.93;;;;;;;3.59;53.63;101612.59;6252405;22;20021;-77
2022/03/12 04:38:44;;;;;;;6.97;5.00;;;;;;;3.57;53.80;101622.06;6233485;22;20242;-77
2022/03/12 04:41:13;;;;;;;8.73;5.30;;;;;;;3.54;53.39;101622.81;6282639;22;20019;-76
2022/03/12 04:43:42;;;;;;;6.93;5.15;;;;;;;3.53;53.78;101623.63;6244917;22;20101;-78
2022/03/12 04:46:11;;;;;;;6.60;5.13;;;;;;;3.50;53.59;101621.78;6335932;22;20025;-77
2022/03/12 04:48:40;;;;;;;12.63;5.78;;;;;;;3.50;53.50;101619.19;6255413;22;20235;-76
2022/03/12 04:51:08;;;;;;;8.30;5.75;;;;;;;3.51;54.15;101625.28;6282339;22;20022;-76
2022/03/12 04:53:38;;;;;;;8.65;5.28;;;;;;;3.50;53.75;101623.50;6242866;22;20033;-75
2022/03/12 04:56:09;;;;;;;7.88;4.97;;;;;;;3.47;53.55;101624.25;6269878;22;20027;-77
2022/03/12 04:58:37;;;;;;;7.35;5.47;;;;;;;3.45;54.07;101622.41;6295440;22;20227;-77
2022/03/12 05:01:07;;;;;;;6.85;5.65;;;;;;;3.44;54.01;101633.63;6248949;22;20023;-78
2022/03/12 05:03:36;;;;;;;12.07;6.38;;;;;;;3.42;53.89;101633.59;6269736;22;20022;-78
2022/03/12 05:06:05;;;;;;;7.10;5.88;;;;;;;3.40;54.55;101634.31;6273520;22;20023;-76
2022/03/12 05:08:36;;;;;;;8.45;5.65;;;;;;;3.39;53.91;101637.78;6275764;22;20135;-77
2022/03/12 05:11:06;;;;;;;8.88;5.50;;;;;;;3.36;53.85;101635.91;6233651;22;20482;-77
2022/03/12 05:13:38;;;;;;;6.35;5.05;;;;;;;3.33;54.34;101641.00;6268962;22;20045;-77
2022/03/12 05:16:08;;;;;;;6.47;5.07;;;;;;;3.30;54.43;101638.25;6272824;22;20025;-78
2022/03/12 05:18:37;;;;;;;7.27;5.97;;;;;;;3.26;54.76;101641.53;6255225;22;20471;-77
2022/03/12 05:21:06;;;;;;;5.68;5.10;;;;;;;3.23;54.53;101646.59;6298511;22;20014;-77
2022/03/12 05:23:35;;;;;;;8.63;5.40;;;;;;;3.21;54.06;101649.13;6302346;22;20023;-77
2022/03/12 05:26:05;;;;;;;6.57;5.03;;;;;;;3.23;53.94;101650.09;6235213;22;20015;-77
2022/03/12 05:28:35;;;;;;;4.90;4.43;;;;;;;3.20;53.94;101652.56;6255104;22;20049;-76
2022/03/12 05:31:08;;;;;;;;;;;;;;;3.19;53.46;101647.28;6286494;22;20015;-76
2022/03/12 05:33:37;;;;;;;11.43;5.82;;;;;;;3.19;53.98;101647.28;6276554;22;19914;-77
2022/03/12 05:36:06;;;;;;;6.90;5.22;;;;;;;3.16;54.39;101654.94;6314438;22;20019;-76
2022/03/12 05:38:36;;;;;;;8.10;5.55;;;;;;;3.12;54.25;101647.00;6290018;22;20146;-78
2022/03/12 05:41:10;;;;;;;;;;;;;;;3.08;54.47;101650.28;6342825;22;20023;-77
2022/03/12 05:43:45;;;;;;;6.60;5.30;;;;;;;3.06;54.16;101657.13;6333370;22;20331;-78
2022/03/12 05:46:19;;;;;;;7.88;5.25;;;;;;;3.04;53.89;101657.88;6284503;22;20025;-76
2022/03/12 05:48:49;;;;;;;8.20;5.35;;;;;;;3.03;54.53;101658.72;6313470;22;20069;-76
2022/03/12 05:51:17;;;;;;;7.03;5.45;;;;;;;3.01;54.33;101656.03;6298512;22;20010;-77
2022/03/12 05:53:47;;;;;;;6.70;5.55;;;;;;;3.00;54.00;101664.63;6257038;22;20019;-77
2022/03/12 05:56:15;;;;;;;5.68;5.05;;;;;;;2.99;54.20;101673.28;6301026;22;20022;-78
2022/03/12 05:58:45;;;;;;;11.00;5.32;;;;;;;2.98;54.19;101660.19;6252535;22;20235;-77
2022/03/12 06:01:16;;;;;;;9.43;5.60;;;;;;;2.97;54.33;101672.31;6307443;22;20018;-77
2022/03/12 06:03:45;;;;;;;5.35;4.43;;;;;;;2.96;54.56;101672.25;6256473;22;20025;-77
2022/03/12 06:06:14;;;;;;;7.63;5.28;;;;;;;2.95;54.63;101670.44;6283386;22;20019;-76
2022/03/12 06:08:45;;;;;;;6.72;5.43;;;;;;;2.93;54.68;101675.63;6295970;22;20027;-76
2022/03/12 06:11:15;;;;;;;15.60;6.43;;;;;;;2.92;54.76;101676.41;6274800;22;20019;-77
2022/03/12 06:13:43;;;;;;;10.07;5.30;;;;;;;2.91;54.41;101669.41;6295034;22;20239;-77
2022/03/12 06:16:14;;;;;;;7.13;5.18;;;;;;;2.89;54.12;101664.16;6267616;22;20014;-77
2022/03/12 06:18:43;;;;;;;7.00;5.20;;;;;;;2.89;54.25;101666.75;6279285;22;20025;-76
2022/03/12 06:21:11;;;;;;;8.18;4.97;;;;;;;2.89;54.79;101678.84;6223863;22;20069;-77
2022/03/12 06:23:41;;;;;;;8.77;6.00;;;;;;;2.90;54.02;101680.66;6313029;22;20516;-77
2022/03/12 06:26:14;;;;;;;8.23;5.38;;;;;;;2.91;54.80;101683.34;6275100;22;20011;-76
2022/03/12 06:28:43;;;;;;;10.18;6.75;;;;;;;2.93;54.28;101681.69;6271920;22;20136;-78
2022/03/12 06:31:18;;;;;;;8.20;5.80;;;;;;;2.96;54.46;101687.88;6309735;22;20019;-78
2022/03/12 06:33:49;;;;;;;6.03;5.00;;;;;;;2.98;54.24;101684.50;6248629;22;20474;-77
2022/03/12 06:36:19;;;;;;;6.35;5.35;;;;;;;3.01;54.10;101682.06;6311974;22;20015;-77
2022/03/12 06:38:48;;;;;;;6.22;5.18;;;;;;;3.04;54.25;101686.50;6283290;22;20023;-77
2022/03/12 06:41:20;;;;;;;10.02;5.60;;;;;;;3.07;54.11;101691.88;6305844;22;20015;-78
2022/03/12 06:43:48;;;;;;;6.15;4.97;;;;;;;3.11;54.26;101701.63;6297294;22;20444;-77
2022/03/12 06:46:18;;;;;;;6.45;4.82;;;;;;;3.17;53.91;101693.19;6284963;22;20011;-78
2022/03/12 06:48:47;;;;;;;10.82;5.38;;;;;;;3.23;54.04;101699.59;6286027;22;20467;-78
2022/03/12 06:51:19;;;;;;;7.50;4.85;;;;;;;3.27;53.98;101703.22;6303189;22;20025;-77
2022/03/12 06:53:51;;;;;;;8.88;5.45;;;;;;;3.30;54.17;101704.25;6277863;22;20440;-76
2022/03/12 06:56:21;;;;;;;6.50;5.10;;;;;;;3.34;54.37;101699.19;6281270;22;20018;-76
2022/03/12 06:58:51;;;;;;;10.35;5.18;;;;;;;3.40;54.33;101710.78;6215332;22;20018;-77
2022/03/12 07:01:22;;;;;;;7.03;4.75;;;;;;;3.41;54.02;101702.16;6272924;22;20022;-78
2022/03/12 07:03:55;;;;;;;7.82;5.32;;;;;;;3.43;54.02;101710.94;6264280;22;20042;-76
2022/03/12 07:06:25;;;;;;;5.80;5.10;;;;;;;3.45;53.72;101709.28;6281009;22;20014;-76
2022/03/12 07:08:53;;;;;;;7.03;4.72;;;;;;;3.48;54.63;101714.66;6302340;22;20023;-77
2022/03/12 07:11:22;;;;;;;9.60;5.15;;;;;;;3.52;54.08;101710.47;6288698;22;20020;-76
2022/03/12 07:13:51;;;;;;;7.93;5.05;;;;;;;3.54;54.15;101710.53;6231164;22;20034;-76
2022/03/12 07:16:19;;;;;;;6.50;4.85;;;;;;;3.57;54.48;101708.06;6265899;22;20023;-76
2022/03/12 07:18:48;;;;;;;7.22;4.90;;;;;;;3.60;54.54;101718.63;6300302;22;20022;-77
2022/03/12 07:21:17;;;;;;;5.57;4.80;;;;;;;3.60;54.50;101719.50;6300837;22;20344;-77
2022/03/12 07:23:45;;;;;;;6.38;4.85;;;;;;;3.63;54.24;101719.66;6267490;22;20492;-77
2022/03/12 07:26:14;;;;;;;7.05;5.20;;;;;;;3.67;54.50;101715.50;6215545;22;20456;-76
2022/03/12 07:28:45;;;;;;;6.88;4.60;;;;;;;3.69;54.29;101725.16;6238876;22;20248;-76
2022/03/12 07:31:15;;;;;;;7.47;5.30;;;;;;;3.71;54.31;101726.09;6253577;22;20027;-78
2022/03/12 07:33:45;;;;;;;8.32;5.35;;;;;;;3.75;54.56;101723.66;6252779;22;20540;-77
2022/03/12 07:36:14;;;;;;;8.07;4.68;;;;;;;3.79;54.61;101733.38;6278709;22;20348;-76
2022/03/12 07:38:43;;;;;;;5.90;5.30;;;;;;;3.84;54.53;101731.88;6303842;22;20019;-77
2022/03/12 07:41:12;;;;;;;4.88;4.43;;;;;;;3.88;54.26;101721.66;6300089;22;20026;-78
2022/03/12 07:43:41;;;;;;;5.05;4.45;;;;;;;3.94;53.96;101720.16;6299251;22;20121;-78
2022/03/12 07:46:09;;;;;;;7.90;5.15;;;;;;;4.00;54.33;101717.81;6289129;22;20471;-77
2022/03/12 07:48:38;;;;;;;8.75;5.03;;;;;;;4.10;54.66;101718.28;6250472;22;20027;-77
2022/03/12 07:51:09;;;;;;;9.70;4.93;;;;;;;4.19;53.91;101720.38;6244899;22;20452;-78
2022/03/12 07:53:37;;;;;;;12.05;5.72;;;;;;;4.26;53.77;101721.53;6301149;22;20140;-77
2022/03/12 07:56:07;;;;;;;8.93;5.05;;;;;;;4.35;53.59;101718.41;6244487;22;20027;-77
2022/03/12 07:58:39;;;;;;;6.90;5.25;;;;;;;4.41;54.05;101731.75;6296547;22;20583;-77
2022/03/12 08:01:08;;;;;;;7.25;5.13;;;;;;;4.51;54.16;101735.63;6232059;22;20015;-77
2022/03/12 08:03:37;;;;;;;6.18;4.88;;;;;;;4.71;53.67;101734.75;6300658;22;20556;-77
2022/03/12 08:06:07;;;;;;;6.57;5.63;;;;;;;5.04;54.17;101743.03;6279816;22;20042;-77
2022/03/12 08:08:36;;;;;;;7.85;6.18;;;;;;;5.47;53.97;101746.47;6276159;22;20248;-77
2022/03/12 08:13:58;;;;;;;6.97;4.30;;;;;;;6.24;54.15;101731.88;6289346;22;20019;-77
2022/03/12 08:16:28;;;;;;;10.18;4.90;;;;;;;6.60;53.61;101736.59;6277674;22;20223;-76
2022/03/12 08:18:57;;;;;;;6.63;5.40;;;;;;;6.94;54.12;101744.69;6309804;22;20014;-77
2022/03/12 08:21:26;;;;;;;10.73;5.22;;;;;;;7.26;53.42;101732.59;6304748;22;20249;-77
2022/03/12 08:23:54;;;;;;;6.82;5.07;;;;;;;7.58;53.69;101728.34;6333417;22;20015;-77
2022/03/12 08:26:24;;;;;;;8.65;4.60;;;;;;;7.91;52.83;101731.88;6269121;22;20018;-78
2022/03/12 08:28:53;;;;;;;5.70;5.05;;;;;;;8.10;52.35;101735.91;6303818;22;20019;-76
2022/03/12 08:31:23;;;;;;;5.53;4.65;;;;;;;8.22;52.05;101728.34;6257712;22;20474;-77
2022/03/12 08:33:54;;;;;;;10.57;5.88;;;;;;;8.27;50.97;101732.00;6336905;22;20015;-76
2022/03/12 08:36:22;;;;;;;8.68;5.25;;;;;;;8.34;51.16;101726.06;6306008;22;20023;-77
2022/03/12 08:38:51;;;;;;;6.55;5.43;;;;;;;8.52;50.70;101723.03;6259256;22;20014;-77
2022/03/12 08:41:21;;;;;;;9.15;5.75;;;;;;;8.63;50.27;101727.69;6280220;22;20018;-76
2022/03/12 08:43:51;;;;;;;8.65;5.22;;;;;;;8.56;49.59;101732.81;6218552;22;20023;-76
2022/03/12 08:46:20;;;;;;;8.60;5.27;;;;;;;8.46;49.40;101736.03;6277779;22;20019;-77
2022/03/12 08:48:56;;;;;;;9.23;5.90;;;;;;;8.36;49.09;101736.63;6272058;22;20241;-77
2022/03/12 08:51:24;;;;;;;6.18;5.57;;;;;;;8.29;49.23;101742.53;6299125;22;20604;-77
2022/03/12 08:53:54;;;;;;;9.50;6.10;;;;;;;8.22;49.27;101745.84;6250187;22;20466;-76
2022/03/12 08:56:23;;;;;;;8.48;5.22;;;;;;;8.22;49.24;101737.97;6308464;22;20053;-77
2022/03/12 08:58:51;;;;;;;9.35;5.90;;;;;;;8.30;49.32;101750.47;6297392;22;20490;-76
2022/03/12 09:01:21;;;;;;;6.95;6.18;;;;;;;8.41;49.21;101750.72;6245816;22;20033;-77
2022/03/12 09:04:14;;;;;;;7.43;5.35;;;;;;;8.43;49.03;101745.56;6276675;22;20026;-77
2022/03/12 09:06:43;;;;;;;7.93;6.63;;;;;;;8.52;48.74;101745.81;6304151;22;20030;-76
2022/03/12 09:09:12;;;;;;;7.10;5.57;;;;;;;8.64;49.01;101751.38;6264495;22;20018;-77
2022/03/12 09:11:41;;;;;;;7.47;5.90;;;;;;;8.81;49.07;101758.78;6210064;22;20363;-77
2022/03/12 09:14:10;;;;;;;9.73;5.68;;;;;;;8.95;48.42;101750.41;6276898;22;20446;-78
2022/03/12 09:16:40;;;;;;;8.43;5.47;;;;;;;9.14;48.23;101754.34;6252004;22;20131;-78
2022/03/12 09:19:10;;;;;;;9.65;5.68;;;;;;;9.27;48.25;101747.63;6268859;22;20018;-78
2022/03/12 09:21:41;;;;;;;9.35;6.60;;;;;;;9.41;47.50;101740.06;6274181;22;20124;-78
2022/03/12 09:24:11;;;;;;;8.07;6.13;;;;;;;9.47;48.12;101747.19;6223500;22;20347;-78
2022/03/12 09:26:41;;;;;;;7.03;5.53;;;;;;;9.47;48.02;101739.28;6279493;22;20045;-78
2022/03/12 09:29:10;;;;;;;8.68;5.85;;;;;;;9.51;48.31;101743.81;6330351;22;20463;-77
2022/03/12 09:31:39;;;;;;;6.70;5.40;;;;;;;9.51;48.05;101749.06;6297829;22;20238;-78
2022/03/12 09:34:09;;;;;;;9.77;6.82;;;;;;;9.52;48.01;101751.69;6272825;22;20026;-78
2022/03/12 09:36:39;;;;;;;11.32;6.43;;;;;;;9.53;48.61;101757.88;6265903;22;20226;-79
2022/03/12 09:39:08;;;;;;;9.43;5.72;;;;;;;9.55;48.57;101759.69;6308527;22;20019;-77
2022/03/12 09:41:38;;;;;;;14.50;6.47;;;;;;;9.57;48.84;101757.97;6278628;22;20127;-78
2022/03/12 09:44:07;;;;;;;7.83;6.63;;;;;;;9.59;48.80;101759.75;6305876;22;20375;-78
2022/03/12 09:46:37;;;;;;;10.98;6.65;;;;;;;9.57;49.26;101752.69;6291513;22;20143;-78
2022/03/12 09:49:06;;;;;;;10.57;6.72;;;;;;;9.62;48.96;101750.19;6290012;22;20011;-79
2022/03/12 09:51:35;;;;;;;9.65;6.60;;;;;;;9.69;49.92;101753.81;6249398;22;20470;-79
2022/03/12 09:54:05;;;;;;;7.03;6.20;;;;;;;9.78;50.39;101753.13;6271994;22;20011;-78
2022/03/12 09:56:34;;;;;;;8.55;6.43;;;;;;;9.85;50.37;101755.94;6294792;22;20457;-78
2022/03/12 09:59:05;;;;;;;8.23;7.00;;;;;;;9.92;50.32;101751.66;6308555;22;20010;-80
2022/03/12 10:01:34;;;;;;;9.48;6.65;;;;;;;10.00;50.59;101757.06;6265841;22;20352;-78
2022/03/12 10:04:03;;;;;;;9.57;6.82;;;;;;;10.06;50.26;101758.09;6297633;22;20019;-80
2022/03/12 10:06:32;;;;;;;9.43;6.88;;;;;;;10.17;50.74;101760.03;6237640;22;20443;-78
2022/03/12 10:09:03;;;;;;;7.47;6.40;;;;;;;10.25;51.19;101764.63;6282323;22;20023;-79
2022/03/12 10:11:33;;;;;;;8.27;7.28;;;;;;;10.35;51.93;101757.81;6301231;22;20030;-77
2022/03/12 10:14:02;;;;;;;8.10;6.70;;;;;;;10.48;52.36;101761.56;6286478;22;20019;-78
2022/03/12 10:16:34;;;;;;;9.95;6.63;;;;;;;10.57;52.52;101771.34;6295076;22;20023;-77
2022/03/12 10:19:03;;;;;;;9.80;6.95;;;;;;;10.62;52.44;101773.22;6243537;22;20321;-79
2022/03/12 10:21:32;;;;;;;7.93;6.95;;;;;;;10.70;53.48;101765.47;6243142;22;20018;-78
2022/03/12 10:24:02;;;;;;;6.93;6.05;;;;;;;10.81;53.38;101769.19;6307966;22;20026;-78
2022/03/12 10:26:31;;;;;;;10.00;6.43;;;;;;;10.92;53.43;101770.22;6279276;22;20029;-78
2022/03/12 10:29:02;;;;;;;8.48;6.72;;;;;;;11.01;53.98;101774.75;6301960;22;20019;-78
2022/03/12 10:31:32;;;;;;;10.38;7.20;;;;;;;11.07;54.43;101779.25;6280832;22;20019;-78
2022/03/12 10:34:23;;;;;;;7.57;6.73;;;;;;;11.12;55.17;101780.22;6236933;22;20022;-78
2022/03/12 10:36:57;;;;;;;8.15;6.95;;;;;;;11.17;55.26;101782.91;6296244;22;20725;-78
2022/03/12 10:39:33;;;;;;;7.82;6.97;;;;;;;11.23;55.74;101783.91;6276643;22;20015;-77
2022/03/12 10:42:06;;;;;;;8.57;6.60;;;;;;;11.28;56.39;101787.50;6305852;22;20027;-76
2022/03/12 10:44:39;;;;;;;12.23;7.38;;;;;;;11.34;57.04;101785.81;6304223;22;20018;-78
2022/03/12 10:47:24;;;;;;;10.00;6.22;;;;;;;11.42;58.77;101789.47;6218280;22;20364;-79
2022/03/12 10:50:05;;;;;;;8.93;7.10;;;;;;;11.50;58.55;101782.53;6288527;22;20460;-78
2022/03/12 10:52:34;;;;;;;8.07;6.88;;;;;;;11.60;58.41;101786.19;6280644;22;20372;-77
2022/03/12 10:55:16;;;;;;;8.80;7.00;;;;;;;11.69;60.29;101779.28;6301289;22;20348;-78
2022/03/12 10:58:09;;;;;;;7.65;6.70;;;;;;;11.75;59.82;101773.19;6336119;22;20029;-78
2022/03/12 11:00:40;;;;;;;9.15;6.82;;;;;;;11.82;59.51;101775.06;6307407;22;20026;-78
2022/03/12 11:03:12;;;;;;;9.50;6.85;;;;;;;11.87;59.39;101778.66;6304577;22;20014;-78
2022/03/12 11:05:43;;;;;;;10.45;7.18;;;;;;;11.95;60.12;101788.47;6265973;22;20364;-78
2022/03/12 11:08:25;;;;;;;9.50;7.05;;;;;;;12.03;60.71;101778.88;6288071;22;20022;-77
2022/03/12 11:11:13;;;;;;;10.15;7.20;;;;;;;12.12;61.74;101786.00;6300067;22;20026;-78
2022/03/12 11:13:48;;;;;;;10.77;7.05;;;;;;;12.15;61.61;101792.22;6302034;22;20019;-79
2022/03/12 11:16:26;;;;;;;9.85;7.00;;;;;;;12.19;61.51;101794.06;6289649;22;20030;-79
2022/03/12 11:18:58;;;;;;;7.30;6.57;;;;;;;12.21;61.09;101794.03;6304466;22;20023;-78
2022/03/12 11:21:35;;;;;;;13.13;7.45;;;;;;;12.23;62.14;101792.31;6328358;22;20014;-78
2022/03/12 11:24:13;;;;;;;9.13;7.25;;;;;;;12.28;62.70;101783.56;6282760;22;20022;-78
2022/03/12 11:26:46;;;;;;;9.05;7.75;;;;;;;12.35;61.98;101791.56;6302128;22;20077;-78
2022/03/12 11:29:21;;;;;;;8.02;7.07;;;;;;;12.41;62.45;101784.59;6298184;22;20026;-78
2022/03/12 11:31:52;;;;;;;10.70;7.30;;;;;;;12.48;62.36;101783.78;6306577;22;20023;-77
2022/03/12 11:34:25;;;;;;;8.27;7.37;;;;;;;12.58;62.39;101797.97;6296687;22;20383;-78
2022/03/12 11:37:06;;;;;;;11.55;6.68;;;;;;;12.66;63.24;101795.41;6278434;22;20474;-79
2022/03/12 11:39:41;;;;;;;8.80;6.88;;;;;;;12.72;63.31;101791.94;6271450;22;20474;-77
2022/03/12 11:42:17;;;;;;;9.70;6.60;;;;;;;12.79;64.32;101783.19;6328000;22;20025;-78
2022/03/12 11:44:49;;;;;;;9.98;7.00;;;;;;;12.88;63.79;101780.63;6320968;22;20565;-78
2022/03/12 11:47:23;;;;;;;8.02;6.88;;;;;;;12.94;64.20;101785.97;6245365;22;20022;-80
2022/03/12 11:49:55;;;;;;;9.02;7.40;;;;;;;12.97;64.09;101775.41;6287989;22;20422;-79
2022/03/12 11:52:27;;;;;;;8.93;7.25;;;;;;;13.00;65.43;101782.47;6301092;22;20015;-77